Tropical Cyclones
[Index]
Main Index Home Page Stock Weather Photos Extreme Storms Discussion Storm News and Storm Chasing Reports Tropical Cyclones / Hurricanes / Typhoons Weather Data and Links Wild Fires / Bushfires Weather Observation Techniques Weather Picture Catalogue Tornado Pictures and Reports Stock Video Footage and DVDs for sale
Season 2001-2002 Tropical Cyclone EDDY Track Map
Season 2001-2002 Summaries: [BoM-AU] [JTWC-AU] [JTWC-SIO] [JTWC-SPAC] [JTWC-SH]
<<- Previous TC | JTWC 2001-2002 Season | Next TC ->>

click for intensity scale information  Lat/long Grid: Show Hide

 Date Labels: Show Hide

Joint Typhoon Warning Centre Cyclone Data

Name: EDDY

23 Jan 2002 06:00 UTC to 28 Jan 2002 12:00 UTC

    date/time    lat    long     hPa   cat  kts
2002-01-23 06   11.7    89.5    1002         25          
2002-01-23 12   11.7    89.4    1002         25          
2002-01-23 18   11.7    89.1    1000         30          
2002-01-24 00   11.7    88.8     997         30          
2002-01-24 06   12.1    88.4    1000         30          
2002-01-24 12   12.6    88.4    1000         30          
2002-01-24 18   13.4    88.6     997         35          
2002-01-25 00   14.2    88.7     994    1    40          
2002-01-25 06   14.8    88.7     991    1    45          
2002-01-25 12   15.5    88.8     984    2    55          
2002-01-25 18   16.3    89.0     980    2    60          
2002-01-26 00   17.1    89.6     976    2    65          
2002-01-26 06   18.3    89.7     976    2    65          
2002-01-26 12   19.3    89.7     972    2    70          
2002-01-26 18   20.1    89.7     967    3    75          
2002-01-27 00   20.8    89.1     972    2    70          
2002-01-27 06   21.5    88.6     976    2    65          
2002-01-27 12   22.1    87.6     984    2    55          
2002-01-27 18   22.0    86.4     991    1    45          
2002-01-28 00   21.9    85.5     997         35          
2002-01-28 06   22.5    84.5     997         35          
2002-01-28 12   23.0    83.4    1000         30          
Winds are 1-min average.

Tropical cyclone tracks developed by Michael Bath using data from the Joint Typhoon Warning Centre Best Tracks and Google Maps.


[Australian Severe Weather index] [Copyright Notice] [Email Contacts] [Search This Site] [Privacy Policy]
Document: tropical_cyclone_eddy.htm Updated: 28 June 2017